Pittsburgh, Pennsylvania
Traffic Map
Current Weather Conditions
Pittsburgh, Pennsylvania
Clear Haze
Clear
69°
Feels Like: 69°
Wind Chill: 69° Ceiling: Unl
Heat Index: 69° Visibility: 4mi
Dew Point: 63° Wind: 0mph
Humidity: 81% Direction: ° ()
Pressure: 30.08in Gusts: 0mph
Raw Report DataKAGC 041153Z 00000KT 4SM HZ CLR 21/17 A3008 RMK AO2 SLP181 T02060172 10211 20194 53017
Traffic Incident Summary
Active as of:
Severity:
Category:
InformationThere was an issue retrieving the traffic information for this location. Please try a different location or try again shortly.
Advertisements
Track Severe Weather on mobile